»·PEaware :: N1SC KSJC-KMRY

N1SC :: KSJC-KMRY

FLIGHT INFORMATION

Flight Status: Arrived
Operator: Privately registered:
United States
More flights under this callsign
Pilot: Chris C. (10181)
Aircraft: CESSNA 172 SKYHAWK
(C172)
More flights by this aircraft type
Origin: KSJC Mineta San Jose Intl
United States
Destination: KMRY Monterey Peninsula
United States
More flights between these airports :: More routes between these airports
Route: SNS
File this flight plan on PilotEdge
Remarks: Using custom weather
Altitude:
(Current/Filed)
7,000ft
Speed:
(Current/Filed)
105kts
Departed: 13-Mar-18 10:33 AM
Arrived: 13-Mar-18 11:18 AM
Distance/Time
Traveled:
47nm/0:45
Distance/Time
To Go:
Arrived

Flight Plot

Page will automatically refresh every two minutes.

Flight plan parsing failed; only flown route is shown


Map Options




Map Legend


Flown Route
Filed Route
Departure Airport
Arrival Airport
Navaid (VOR, NDB)
Fix

Horizontal Profiles

Position Reports

Time Latitude Longitude Heading Altitude Ground
Speed
13-Mar-18 10:16 37.353157 -121.921768 227 65ft 0kts
13-Mar-18 10:17 37.353156 -121.921769 227 65ft 0kts
13-Mar-18 10:18 37.353156 -121.921770 227 65ft 0kts
13-Mar-18 10:19 37.353155 -121.921771 227 65ft 0kts
13-Mar-18 10:20 37.353154 -121.921772 227 65ft 0kts
13-Mar-18 10:21 37.353154 -121.921772 227 65ft 0kts
13-Mar-18 10:22 37.353153 -121.921773 227 65ft 0kts
13-Mar-18 10:23 37.353153 -121.921774 227 65ft 0kts
13-Mar-18 10:24 37.353152 -121.921775 227 65ft 0kts
13-Mar-18 10:25 37.353957 -121.922320 336 65ft 14kts
13-Mar-18 10:26 37.357234 -121.925646 337 65ft 0kts
13-Mar-18 10:27 37.359389 -121.929487 317 65ft 24kts
13-Mar-18 10:28 37.364700 -121.935283 318 65ft 26kts
13-Mar-18 10:29 37.368725 -121.939204 319 65ft 24kts
13-Mar-18 10:30 37.372159 -121.941856 12 65ft 6kts
13-Mar-18 10:31 37.372421 -121.941605 50 65ft 0kts
13-Mar-18 10:32 37.370400 -121.938385 139 65ft 55kts
13-Mar-18 10:33 37.354452 -121.921479 143 569ft 78kts
13-Mar-18 10:34 37.334919 -121.910381 166 1168ft 81kts
13-Mar-18 10:35 37.311634 -121.901835 163 1769ft 86kts
13-Mar-18 10:36 37.289062 -121.892335 165 2393ft 84kts
13-Mar-18 10:37 37.266767 -121.885032 164 3006ft 81kts
13-Mar-18 10:38 37.244796 -121.878536 166 3552ft 81kts
13-Mar-18 10:39 37.222580 -121.872184 168 4067ft 81kts
13-Mar-18 10:40 37.200459 -121.865143 163 4570ft 80kts
13-Mar-18 10:41 37.180367 -121.853964 157 5062ft 76kts
13-Mar-18 10:42 37.160019 -121.843588 159 5572ft 83kts
13-Mar-18 10:43 37.137933 -121.832773 160 6088ft 87kts
13-Mar-18 10:44 37.112742 -121.820571 160 6512ft 107kts
13-Mar-18 10:45 37.085623 -121.807381 160 6910ft 101kts
13-Mar-18 10:46 37.058933 -121.794413 160 7023ft 108kts
13-Mar-18 10:47 37.027972 -121.779448 160 7005ft 125kts
13-Mar-18 10:48 36.997286 -121.764530 160 7015ft 113kts
13-Mar-18 10:49 36.968017 -121.750316 160 7014ft 112kts
13-Mar-18 10:50 36.939055 -121.736275 160 7015ft 111kts
13-Mar-18 10:51 36.914920 -121.724587 160 7014ft 111kts
13-Mar-18 10:52 36.881010 -121.708181 160 6996ft 113kts
13-Mar-18 10:53 36.848511 -121.692550 160 6473ft 129kts
13-Mar-18 10:54 36.814546 -121.676218 160 5977ft 131kts
13-Mar-18 10:55 36.786225 -121.662621 160 5565ft 131kts
13-Mar-18 10:56 36.752287 -121.646188 159 5110ft 128kts
13-Mar-18 10:57 36.715734 -121.628458 159 5083ft 116kts
13-Mar-18 10:58 36.690830 -121.616407 159 5088ft 115kts
13-Mar-18 10:59 36.660962 -121.602001 161 5086ft 114kts
13-Mar-18 11:00 36.630850 -121.589521 162 5086ft 114kts
13-Mar-18 11:01 36.600804 -121.576959 162 5085ft 114kts
13-Mar-18 11:02 36.571114 -121.565483 158 5163ft 111kts
13-Mar-18 11:03 36.571772 -121.530414 75 5094ft 119kts
13-Mar-18 11:04 36.582563 -121.491747 74 5088ft 118kts
13-Mar-18 11:05 36.595928 -121.454857 33 5074ft 121kts
13-Mar-18 11:06 36.607094 -121.479587 244 5093ft 118kts
13-Mar-18 11:07 36.596061 -121.518732 249 5087ft 120kts
13-Mar-18 11:08 36.584747 -121.557791 249 5082ft 120kts
13-Mar-18 11:09 36.574999 -121.600124 257 4658ft 137kts
13-Mar-18 11:10 36.562337 -121.644852 256 3904ft 131kts
13-Mar-18 11:11 36.564897 -121.689248 281 3180ft 129kts
13-Mar-18 11:12 36.573114 -121.728128 285 2401ft 103kts
13-Mar-18 11:13 36.575935 -121.760868 266 1676ft 83kts
13-Mar-18 11:14 36.574292 -121.785210 266 1275ft 66kts
13-Mar-18 11:15 36.575425 -121.807513 278 919ft 62kts
13-Mar-18 11:16 36.581150 -121.827082 286 409ft 63kts
13-Mar-18 11:17 36.585556 -121.841112 215 208ft 7kts
13-Mar-18 11:18 36.585196 -121.841800 280 208ft 0kts
13-Mar-18 11:19 36.585619 -121.843180 292 208ft 4kts
13-Mar-18 11:20 36.587682 -121.848927 296 208ft 15kts
13-Mar-18 11:21 36.589112 -121.854091 257 208ft 15kts
13-Mar-18 11:22 36.588866 -121.854781 183 208ft 0kts

Navigation Log

Ident Type
Flight plan parsing failed, navigation log unavailable